Time;durP1;ratioP1;P1;durP2;ratioP2;P2;SDS_P1;SDS_P2;PMS_P1;PMS_P2;Temp;Humidity;BMP_temperature;BMP_pressure;BME280_temperature;BME280_humidity;BME280_pressure;Samples;Min_cycle;Max_cycle;Signal;HPM_P1;HPM_P2
2021/09/21 00:01:03;;;;;;;11.13;10.10;;;15.80;99.90;;;;;;5033416;28;20174;-60
2021/09/21 00:03:28;;;;;;;12.50;11.40;;;15.70;99.90;;;;;;5026343;28;20210;-61
2021/09/21 00:05:54;;;;;;;10.50;9.50;;;15.80;99.90;;;;;;5028179;28;20470;-60
2021/09/21 00:08:19;;;;;;;11.73;10.63;;;15.70;99.90;;;;;;5033956;28;20242;-60
2021/09/21 00:10:45;;;;;;;10.80;9.80;;;15.80;99.90;;;;;;5033584;28;20584;-61
2021/09/21 00:13:11;;;;;;;12.17;10.47;;;15.90;99.90;;;;;;5033278;28;20177;-61
2021/09/21 00:15:36;;;;;;;10.40;9.50;;;15.80;99.90;;;;;;5019348;28;20259;-61
2021/09/21 00:18:02;;;;;;;10.20;9.30;;;15.80;99.90;;;;;;5013248;28;20172;-61
2021/09/21 00:20:27;;;;;;;13.10;9.40;;;15.90;99.90;;;;;;5013139;28;20628;-61
2021/09/21 00:22:53;;;;;;;13.43;12.03;;;15.90;99.90;;;;;;5013675;28;20200;-61
2021/09/21 00:25:19;;;;;;;17.93;12.70;;;15.70;99.90;;;;;;5013442;28;20195;-61
2021/09/21 00:27:45;;;;;;;12.33;11.13;;;15.60;99.90;;;;;;5013551;28;20181;-59
2021/09/21 00:30:12;;;;;;;12.37;11.07;;;15.60;99.90;;;;;;5013305;28;20476;-60
2021/09/21 00:32:38;;;;;;;12.03;10.93;;;15.80;99.90;;;;;;5013387;28;20225;-61
2021/09/21 00:35:04;;;;;;;12.03;10.80;;;15.90;99.90;;;;;;5012828;28;20472;-61
2021/09/21 00:37:30;;;;;;;11.77;10.67;;;16.00;99.90;;;;;;5013207;28;20214;-61
2021/09/21 00:39:56;;;;;;;11.50;10.30;;;16.00;99.90;;;;;;5013584;28;20440;-60
2021/09/21 00:42:28;;;;;;;13.20;11.90;;;16.00;99.90;;;;;;5013247;28;20220;-58
2021/09/21 00:45:18;;;;;;;12.07;10.97;;;15.90;99.90;;;;;;5013502;28;20184;-59
2021/09/21 00:47:54;;;;;;;12.43;11.33;;;15.90;99.90;;;;;;5004602;28;20932;-60
2021/09/21 00:50:22;;;;;;;12.40;11.20;;;15.80;99.90;;;;;;5013174;28;20751;-60
2021/09/21 00:52:48;;;;;;;13.50;12.20;;;15.60;99.90;;;;;;5013176;28;20410;-60
2021/09/21 00:55:14;;;;;;;13.23;11.93;;;15.40;99.90;;;;;;5013170;28;20454;-60
2021/09/21 00:57:41;;;;;;;11.90;10.80;;;15.40;99.90;;;;;;5013428;28;20404;-61
2021/09/21 01:00:10;;;;;;;13.60;12.17;;;15.20;99.90;;;;;;5013870;28;20463;-60
2021/09/21 01:02:35;;;;;;;12.70;11.60;;;15.40;99.90;;;;;;5016698;28;20853;-60
2021/09/21 01:05:03;;;;;;;13.60;11.90;;;15.40;99.90;;;;;;5017384;28;20439;-61
2021/09/21 01:07:28;;;;;;;15.83;11.50;;;15.60;99.90;;;;;;5016762;28;20170;-59
2021/09/21 01:10:31;;;;;;;13.30;12.00;;;15.60;99.90;;;;;;5016965;28;20537;-61
2021/09/21 01:12:57;;;;;;;11.90;10.70;;;15.70;99.90;;;;;;5014761;28;20675;-61
2021/09/21 01:15:24;;;;;;;13.87;12.47;;;15.80;99.90;;;;;;5016383;28;20457;-61
2021/09/21 01:17:51;;;;;;;13.80;12.53;;;15.70;99.90;;;;;;5017150;28;20395;-60
2021/09/21 01:20:18;;;;;;;12.13;11.03;;;15.60;99.90;;;;;;5016821;28;20450;-58
2021/09/21 01:22:44;;;;;;;12.53;11.43;;;15.70;99.90;;;;;;5017087;28;20497;-60
2021/09/21 01:25:11;;;;;;;13.47;12.17;;;15.60;99.90;;;;;;5016611;28;20433;-59
2021/09/21 01:27:37;;;;;;;12.43;11.13;;;15.60;99.90;;;;;;5017026;28;20433;-60
2021/09/21 01:30:05;;;;;;;12.70;11.50;;;15.70;99.90;;;;;;5016717;28;20908;-60
2021/09/21 01:32:31;;;;;;;12.50;11.30;;;15.70;99.90;;;;;;5016932;28;20404;-60
2021/09/21 01:34:57;;;;;;;11.27;10.20;;;15.70;99.90;;;;;;5016265;28;20471;-60
2021/09/21 01:37:24;;;;;;;11.97;10.83;;;15.70;99.90;;;;;;5016282;28;20657;-60
2021/09/21 01:39:50;;;;;;;12.63;11.33;;;15.80;99.90;;;;;;5016799;28;20172;-60
2021/09/21 01:42:16;;;;;;;12.27;11.07;;;15.90;99.90;;;;;;5016332;28;20495;-60
2021/09/21 01:44:41;;;;;;;12.60;11.47;;;15.80;99.90;;;;;;5016087;28;20494;-60
2021/09/21 01:47:07;;;;;;;13.90;12.70;;;15.80;99.90;;;;;;5016397;28;20174;-60
2021/09/21 01:49:41;;;;;;;11.57;10.53;;;15.70;99.90;;;;;;5016342;28;20171;-59
2021/09/21 01:59:47;;;;;;;11.73;10.60;;;15.70;99.90;;;;;;5016595;28;20902;-60
2021/09/21 02:02:13;;;;;;;12.30;11.20;;;15.60;99.90;;;;;;5016089;28;20411;-60
2021/09/21 02:04:39;;;;;;;12.27;10.83;;;15.60;99.90;;;;;;5016150;28;20240;-60
2021/09/21 02:07:04;;;;;;;12.87;11.57;;;15.60;99.90;;;;;;5015868;28;20214;-59
2021/09/21 02:09:30;;;;;;;12.43;11.20;;;15.70;99.90;;;;;;5015780;28;20175;-60
2021/09/21 02:11:55;;;;;;;12.37;11.27;;;15.70;99.90;;;;;;5015560;28;20169;-60
2021/09/21 02:14:22;;;;;;;13.50;12.10;;;15.80;99.90;;;;;;5015485;28;20179;-60
2021/09/21 02:16:50;;;;;;;13.33;11.83;;;15.50;99.90;;;;;;5021331;28;20167;-60
2021/09/21 02:19:16;;;;;;;11.60;10.50;;;15.50;99.90;;;;;;5035640;28;20442;-60
2021/09/21 02:21:42;;;;;;;13.20;12.00;;;15.50;99.90;;;;;;5035338;28;20429;-60
2021/09/21 02:24:08;;;;;;;11.90;10.80;;;15.60;99.90;;;;;;5035592;28;20406;-60
2021/09/21 02:26:33;;;;;;;12.67;11.17;;;15.50;99.90;;;;;;5035248;28;20226;-60
2021/09/21 02:28:59;;;;;;;12.37;11.17;;;15.60;99.90;;;;;;5035188;28;20597;-60
2021/09/21 02:31:25;;;;;;;12.77;11.57;;;15.50;99.90;;;;;;5035191;28;20706;-60
2021/09/21 02:33:50;;;;;;;12.93;11.73;;;15.50;99.90;;;;;;5035349;28;20169;-60
2021/09/21 02:36:16;;;;;;;12.40;11.20;;;15.50;99.90;;;;;;5034526;28;20253;-60
2021/09/21 02:38:42;;;;;;;12.37;11.30;;;15.40;99.90;;;;;;5035019;28;20194;-60
2021/09/21 02:41:08;;;;;;;11.53;10.57;;;15.50;99.90;;;;;;5035030;28;20182;-60
2021/09/21 02:43:34;;;;;;;12.23;11.03;;;15.40;99.90;;;;;;5034652;28;20709;-60
2021/09/21 02:46:01;;;;;;;12.50;11.20;;;15.50;99.90;;;;;;5034705;28;20579;-60
2021/09/21 02:48:31;;;;;;;13.33;12.03;;;15.50;99.90;;;;;;5034766;28;20463;-60
2021/09/21 02:50:57;;;;;;;12.73;11.43;;;15.50;99.90;;;;;;5035025;28;20912;-60
2021/09/21 02:53:23;;;;;;;13.77;12.47;;;15.40;99.90;;;;;;5016917;28;20520;-60
2021/09/21 02:55:49;;;;;;;11.60;10.50;;;15.40;99.90;;;;;;5031530;28;20536;-60
2021/09/21 02:58:15;;;;;;;12.80;11.60;;;15.40;99.90;;;;;;5025746;28;20210;-60
2021/09/21 03:00:41;;;;;;;13.80;12.00;;;15.40;99.90;;;;;;5034391;28;20168;-60
2021/09/21 03:03:08;;;;;;;14.83;13.30;;;15.50;99.90;;;;;;5034791;28;20404;-60
2021/09/21 03:05:39;;;;;;;12.30;11.10;;;15.50;99.90;;;;;;5034271;28;20447;-60
2021/09/21 03:08:17;;;;;;;12.47;11.37;;;15.50;99.90;;;;;;5034367;28;20399;-60
2021/09/21 03:18:39;;;;;;;12.57;11.37;;;15.40;99.90;;;;;;5003648;28;20755;-60
2021/09/21 03:21:06;;;;;;;12.03;10.93;;;15.30;99.90;;;;;;5032804;28;20428;-60
2021/09/21 03:23:31;;;;;;;12.77;11.47;;;15.30;99.90;;;;;;5022721;28;20449;-60
2021/09/21 03:25:57;;;;;;;11.80;10.63;;;15.40;99.90;;;;;;5015108;28;20466;-60
2021/09/21 03:28:23;;;;;;;13.53;12.13;;;15.50;99.90;;;;;;5020325;28;20177;-60
2021/09/21 03:30:49;;;;;;;14.70;13.23;;;15.30;99.90;;;;;;5034351;28;20593;-60
2021/09/21 03:33:15;;;;;;;12.80;11.70;;;15.30;99.90;;;;;;5034410;28;20495;-60
2021/09/21 03:35:41;;;;;;;13.13;11.93;;;15.40;99.90;;;;;;5034898;28;20848;-60
2021/09/21 03:38:06;;;;;;;12.00;10.83;;;15.50;99.90;;;;;;5034271;28;20400;-60
2021/09/21 03:40:32;;;;;;;12.63;11.50;;;15.50;99.90;;;;;;5028003;28;20183;-60
2021/09/21 03:42:58;;;;;;;12.67;11.40;;;15.40;99.90;;;;;;5014415;28;20758;-60
2021/09/21 03:45:24;;;;;;;14.07;12.77;;;15.50;99.90;;;;;;5014104;28;20429;-60
2021/09/21 03:47:50;;;;;;;12.77;11.53;;;15.20;99.90;;;;;;5014334;28;20683;-60
2021/09/21 03:50:16;;;;;;;11.83;10.70;;;15.10;99.90;;;;;;5014064;28;20409;-61
2021/09/21 03:52:42;;;;;;;12.60;11.40;;;15.20;99.90;;;;;;5033503;28;20485;-60
2021/09/21 03:55:07;;;;;;;17.10;11.87;;;15.30;99.90;;;;;;5033746;28;20206;-60
2021/09/21 03:57:33;;;;;;;13.20;11.97;;;15.30;99.90;;;;;;5033353;28;20481;-59
2021/09/21 03:59:59;;;;;;;13.60;12.17;;;15.30;99.90;;;;;;5032369;28;20190;-60
2021/09/21 04:02:24;;;;;;;13.83;12.57;;;15.30;99.90;;;;;;5033714;28;20205;-60
2021/09/21 04:04:50;;;;;;;12.30;11.10;;;15.00;99.90;;;;;;5033980;28;20210;-60
2021/09/21 04:07:16;;;;;;;11.90;10.80;;;14.90;99.90;;;;;;5033307;28;20185;-60
2021/09/21 04:09:41;;;;;;;12.20;11.10;;;14.90;99.90;;;;;;5033537;28;20185;-59
2021/09/21 04:12:07;;;;;;;12.17;10.83;;;14.80;99.90;;;;;;5033572;28;20178;-60
2021/09/21 04:14:33;;;;;;;12.50;11.30;;;14.80;99.90;;;;;;5033218;28;20206;-60
2021/09/21 04:16:59;;;;;;;12.43;11.23;;;14.80;99.90;;;;;;5033420;28;20217;-60
2021/09/21 04:19:25;;;;;;;12.30;11.10;;;15.00;99.90;;;;;;5033487;28;20893;-60
2021/09/21 04:21:51;;;;;;;14.50;13.17;;;15.10;99.90;;;;;;5032664;28;20182;-60
2021/09/21 04:24:16;;;;;;;14.27;12.57;;;15.00;99.90;;;;;;5027608;28;20773;-60
2021/09/21 04:26:42;;;;;;;11.23;10.23;;;14.90;99.90;;;;;;5013474;28;20191;-59
2021/09/21 04:29:09;;;;;;;13.47;12.17;;;14.80;99.90;;;;;;5013534;28;20187;-60
2021/09/21 04:31:38;;;;;;;12.90;11.80;;;14.80;99.90;;;;;;5013627;28;20182;-60
2021/09/21 04:34:04;;;;;;;13.47;12.27;;;14.60;99.90;;;;;;5013102;28;20475;-60
2021/09/21 04:36:29;;;;;;;17.27;15.77;;;14.70;99.90;;;;;;5012016;28;20499;-60
2021/09/21 04:38:55;;;;;;;13.70;12.40;;;14.70;99.90;;;;;;5013356;28;20170;-60
2021/09/21 04:41:20;;;;;;;15.40;13.90;;;14.70;99.90;;;;;;5013241;28;20184;-59
2021/09/21 04:43:46;;;;;;;14.23;12.93;;;14.80;99.90;;;;;;5013671;28;20572;-60
2021/09/21 04:46:12;;;;;;;14.00;12.60;;;14.90;99.90;;;;;;5013379;28;20216;-60
2021/09/21 04:48:37;;;;;;;22.60;20.30;;;14.80;99.90;;;;;;5013404;28;20229;-58
2021/09/21 04:51:04;;;;;;;30.13;26.93;;;14.80;99.90;;;;;;5012902;28;20179;-59
2021/09/21 04:53:29;;;;;;;23.90;21.30;;;14.90;99.90;;;;;;5013154;28;20417;-60
2021/09/21 04:55:55;;;;;;;14.50;13.00;;;15.00;99.90;;;;;;5013301;28;20809;-59
2021/09/21 04:58:21;;;;;;;16.07;14.67;;;15.00;99.90;;;;;;4995468;28;20183;-59
2021/09/21 05:00:46;;;;;;;16.50;14.47;;;15.00;99.90;;;;;;5013041;28;20233;-59
2021/09/21 05:03:12;;;;;;;13.50;12.30;;;14.70;99.90;;;;;;5013019;28;20170;-58
2021/09/21 05:05:38;;;;;;;16.23;14.70;;;14.70;99.90;;;;;;5012465;28;20668;-59
2021/09/21 05:08:04;;;;;;;12.80;11.53;;;14.70;99.90;;;;;;5012982;28;20205;-59
2021/09/21 05:10:31;;;;;;;13.30;12.10;;;14.70;99.90;;;;;;5013081;28;20179;-60
2021/09/21 05:12:57;;;;;;;13.10;11.73;;;14.70;99.90;;;;;;5031575;28;20438;-58
2021/09/21 05:15:23;;;;;;;11.50;10.47;;;14.40;99.90;;;;;;5032471;28;20463;-58
2021/09/21 05:17:49;;;;;;;11.97;10.87;;;14.30;99.90;;;;;;5032821;28;20268;-57
2021/09/21 05:20:15;;;;;;;13.70;12.30;;;14.30;99.90;;;;;;5032356;28;20443;-61
2021/09/21 05:22:41;;;;;;;12.73;11.63;;;14.20;99.90;;;;;;5032161;28;20173;-59
2021/09/21 05:25:07;;;;;;;13.50;12.20;;;14.40;99.90;;;;;;5032636;28;20430;-58
2021/09/21 05:27:33;;;;;;;11.73;10.73;;;14.50;99.90;;;;;;5032469;28;20645;-59
2021/09/21 05:29:59;;;;;;;13.70;12.40;;;14.50;99.90;;;;;;5032539;28;20409;-58
2021/09/21 05:32:24;;;;;;;12.97;11.77;;;14.60;99.90;;;;;;5032726;28;20186;-59
2021/09/21 05:34:50;;;;;;;11.20;10.20;;;14.60;99.90;;;;;;5032078;28;20210;-58
2021/09/21 05:37:16;;;;;;;12.43;11.27;;;14.60;99.90;;;;;;5031971;28;20169;-59
2021/09/21 05:39:41;;;;;;;11.73;10.73;;;14.60;99.90;;;;;;5032338;28;20171;-58
2021/09/21 05:42:07;;;;;;;12.67;10.90;;;14.60;99.90;;;;;;5032151;28;20235;-59
2021/09/21 05:44:32;;;;;;;13.37;11.97;;;14.60;99.90;;;;;;5032270;28;20249;-59
2021/09/21 05:46:58;;;;;;;12.57;11.27;;;14.80;99.90;;;;;;5034162;28;20662;-59
2021/09/21 05:49:24;;;;;;;12.50;11.33;;;14.70;99.90;;;;;;5035663;28;20178;-59
2021/09/21 05:51:49;;;;;;;12.87;11.50;;;14.70;99.90;;;;;;5035419;28;20175;-60
2021/09/21 05:54:15;;;;;;;14.37;11.33;;;14.70;99.90;;;;;;5035626;28;20181;-59
2021/09/21 05:56:41;;;;;;;12.83;11.60;;;14.80;99.90;;;;;;5024244;28;20215;-60
2021/09/21 05:59:07;;;;;;;12.37;11.17;;;14.70;99.90;;;;;;5016012;28;20187;-59
2021/09/21 06:01:34;;;;;;;13.60;12.30;;;14.60;99.90;;;;;;5020971;28;20173;-59
2021/09/21 06:04:00;;;;;;;12.50;11.30;;;14.60;99.90;;;;;;5035743;28;20425;-59
2021/09/21 06:06:26;;;;;;;14.30;13.00;;;14.70;99.90;;;;;;5034849;28;20532;-57
2021/09/21 06:08:51;;;;;;;11.87;10.73;;;14.70;99.90;;;;;;5035652;28;20173;-59
2021/09/21 06:11:20;;;;;;;13.13;12.03;;;14.70;99.90;;;;;;5035266;28;20212;-57
2021/09/21 06:13:49;;;;;;;11.60;10.43;;;14.70;99.90;;;;;;5035131;28;20170;-59
2021/09/21 06:16:17;;;;;;;12.70;11.40;;;14.70;99.90;;;;;;5035214;28;20472;-59
2021/09/21 06:18:43;;;;;;;12.40;11.30;;;14.70;99.90;;;;;;5035483;28;20455;-59
2021/09/21 06:21:08;;;;;;;11.03;9.93;;;14.60;99.90;;;;;;5034887;28;20407;-59
2021/09/21 06:23:34;;;;;;;11.90;10.80;;;14.60;99.90;;;;;;5031001;28;20168;-59
2021/09/21 06:26:00;;;;;;;12.67;11.47;;;14.60;99.90;;;;;;5015581;28;20636;-60
2021/09/21 06:28:25;;;;;;;12.67;11.47;;;14.60;99.90;;;;;;5015762;28;20174;-60
2021/09/21 06:30:51;;;;;;;13.03;10.27;;;14.60;99.90;;;;;;5014660;28;20634;-59
2021/09/21 06:33:17;;;;;;;13.50;12.20;;;14.50;99.90;;;;;;5015039;28;20180;-59
2021/09/21 06:35:42;;;;;;;13.80;12.30;;;14.40;99.90;;;;;;5014913;28;20410;-59
2021/09/21 06:38:08;;;;;;;12.00;10.80;;;14.50;99.90;;;;;;5014801;28;20545;-59
2021/09/21 06:40:33;;;;;;;14.13;12.83;;;14.60;99.90;;;;;;5015184;28;20185;-57
2021/09/21 06:42:59;;;;;;;13.07;11.87;;;14.60;99.90;;;;;;5015041;28;20191;-59
2021/09/21 06:45:25;;;;;;;13.70;12.40;;;14.60;99.90;;;;;;5014713;28;20236;-59
2021/09/21 06:47:51;;;;;;;13.57;12.37;;;14.60;99.90;;;;;;5015686;28;20579;-57
2021/09/21 06:50:17;;;;;;;12.83;11.60;;;14.60;99.90;;;;;;5020364;28;20459;-56
2021/09/21 06:52:43;;;;;;;12.17;10.70;;;14.40;99.90;;;;;;5034697;28;20259;-58
2021/09/21 06:55:10;;;;;;;11.93;10.83;;;14.40;99.90;;;;;;5034717;28;20248;-59
2021/09/21 06:57:36;;;;;;;12.13;10.93;;;14.20;99.90;;;;;;5033693;28;20772;-60
2021/09/21 07:00:04;;;;;;;12.60;11.30;;;14.30;99.90;;;;;;5034046;28;20404;-57
2021/09/21 07:02:30;;;;;;;13.73;11.17;;;14.40;99.90;;;;;;5034321;28;20417;-59
2021/09/21 07:04:55;;;;;;;13.10;11.73;;;14.40;99.90;;;;;;5034208;28;20426;-59
2021/09/21 07:07:21;;;;;;;12.20;10.90;;;14.50;99.90;;;;;;5034144;28;20320;-59
2021/09/21 07:09:46;;;;;;;13.00;11.70;;;14.60;99.90;;;;;;5034107;28;20545;-59
2021/09/21 07:12:12;;;;;;;15.07;12.27;;;14.70;99.90;;;;;;5016451;28;20553;-58
2021/09/21 07:14:37;;;;;;;12.00;10.93;;;14.80;99.90;;;;;;5033895;28;20175;-58
2021/09/21 07:17:03;;;;;;;13.10;11.90;;;14.60;99.90;;;;;;5034409;28;20244;-59
2021/09/21 07:19:28;;;;;;;12.80;11.40;;;14.40;99.90;;;;;;5034318;28;20165;-59
2021/09/21 07:21:54;;;;;;;11.70;10.50;;;14.50;99.90;;;;;;5033679;28;20177;-59
2021/09/21 07:24:20;;;;;;;11.67;10.47;;;14.50;99.90;;;;;;5034126;28;20173;-58
2021/09/21 07:26:48;;;;;;;12.80;11.50;;;14.70;99.90;;;;;;5033955;28;20201;-58
2021/09/21 07:29:14;;;;;;;13.27;10.63;;;14.70;99.90;;;;;;5034299;28;20187;-59
2021/09/21 07:31:40;;;;;;;10.30;9.37;;;14.70;99.90;;;;;;5033658;28;20413;-57
2021/09/21 07:34:05;;;;;;;11.53;10.33;;;14.90;99.90;;;;;;5034130;28;20497;-58
2021/09/21 07:36:31;;;;;;;11.97;10.67;;;15.10;99.90;;;;;;5033377;28;20212;-59
2021/09/21 07:38:57;;;;;;;13.03;10.57;;;15.10;99.90;;;;;;5033835;28;20288;-60
2021/09/21 07:41:23;;;;;;;10.57;9.57;;;15.30;99.90;;;;;;5034034;28;20414;-60
2021/09/21 07:43:49;;;;;;;11.47;10.47;;;15.10;99.90;;;;;;5034078;28;20410;-60
2021/09/21 07:46:14;;;;;;;10.27;9.27;;;15.10;99.90;;;;;;5033422;28;20199;-60
2021/09/21 07:48:40;;;;;;;10.93;9.93;;;15.40;99.90;;;;;;5033964;28;20227;-60
2021/09/21 07:51:07;;;;;;;11.70;10.03;;;15.80;99.90;;;;;;5033820;28;20644;-58
2021/09/21 07:53:34;;;;;;;11.60;10.57;;;15.90;99.90;;;;;;5033648;28;20214;-58
2021/09/21 07:55:59;;;;;;;11.37;10.37;;;15.70;99.90;;;;;;5033941;28;20845;-58
2021/09/21 07:58:25;;;;;;;11.23;10.03;;;15.60;99.90;;;;;;5033552;28;20504;-59
2021/09/21 08:00:54;;;;;;;10.67;9.37;;;15.70;99.90;;;;;;5033094;28;20616;-59
2021/09/21 08:03:20;;;;;;;11.17;10.03;;;16.00;99.90;;;;;;5033104;28;20634;-58
2021/09/21 08:05:45;;;;;;;11.37;10.23;;;16.10;99.90;;;;;;5033264;28;20441;-59
2021/09/21 08:08:11;;;;;;;12.20;9.70;;;16.10;99.90;;;;;;5033357;28;20180;-58
2021/09/21 08:10:37;;;;;;;11.03;9.77;;;15.90;99.90;;;;;;5033830;28;20193;-59
2021/09/21 08:13:03;;;;;;;10.80;9.70;;;15.70;99.90;;;;;;5034094;28;20895;-59
2021/09/21 08:15:30;;;;;;;9.30;8.40;;;15.70;99.90;;;;;;5032701;28;20466;-59
2021/09/21 08:18:00;;;;;;;10.33;9.40;;;15.70;99.90;;;;;;5033394;28;20411;-58
2021/09/21 08:20:26;;;;;;;10.00;9.10;;;15.80;99.90;;;;;;5032880;28;20417;-59
2021/09/21 08:22:53;;;;;;;9.83;8.93;;;16.00;99.90;;;;;;5033061;28;20774;-59
2021/09/21 08:25:19;;;;;;;9.40;8.50;;;16.20;99.90;;;;;;5033002;28;20426;-59
2021/09/21 08:27:45;;;;;;;9.60;8.70;;;16.20;99.90;;;;;;5023313;28;20980;-59
2021/09/21 08:30:11;;;;;;;10.30;9.20;;;16.00;99.90;;;;;;5013527;28;20404;-59
2021/09/21 08:32:38;;;;;;;9.97;8.97;;;15.70;99.90;;;;;;5013900;28;20183;-58
2021/09/21 08:35:04;;;;;;;9.50;8.37;;;15.70;99.90;;;;;;5012916;28;20482;-60
2021/09/21 08:37:30;;;;;;;9.07;8.27;;;15.70;99.90;;;;;;5013126;28;20851;-59
2021/09/21 08:39:56;;;;;;;9.77;8.77;;;15.70;99.90;;;;;;5013458;28;20459;-59
2021/09/21 08:42:22;;;;;;;8.87;8.07;;;15.70;99.90;;;;;;5013253;28;20278;-59
2021/09/21 08:44:48;;;;;;;8.07;7.27;;;15.80;99.90;;;;;;5013259;28;20430;-59
2021/09/21 08:47:14;;;;;;;9.23;8.17;;;15.60;99.90;;;;;;5013934;28;20744;-59
2021/09/21 08:49:40;;;;;;;8.50;7.60;;;15.60;99.90;;;;;;5024365;28;20188;-59
2021/09/21 08:52:06;;;;;;;7.20;6.60;;;15.80;99.90;;;;;;5012834;28;20432;-59
2021/09/21 08:54:32;;;;;;;8.50;6.50;;;15.90;99.90;;;;;;5013249;28;20235;-59
2021/09/21 08:56:59;;;;;;;7.90;7.20;;;15.80;99.90;;;;;;5013282;28;20643;-59
2021/09/21 08:59:30;;;;;;;8.00;7.30;;;15.70;99.90;;;;;;5012888;28;20179;-59
2021/09/21 09:01:56;;;;;;;8.80;7.40;;;15.80;99.90;;;;;;5013160;28;20491;-59
2021/09/21 09:04:21;;;;;;;7.10;6.50;;;15.90;99.90;;;;;;5013112;28;20828;-59
2021/09/21 09:06:50;;;;;;;8.10;7.30;;;16.10;99.90;;;;;;5012209;28;20200;-59
2021/09/21 09:09:17;;;;;;;7.50;6.90;;;16.30;99.90;;;;;;5012904;28;20717;-58
2021/09/21 09:11:46;;;;;;;7.33;6.63;;;16.30;99.90;;;;;;5021724;28;20420;-58
2021/09/21 09:14:30;;;;;;;7.73;6.93;;;16.20;99.90;;;;;;5032413;28;20751;-59
2021/09/21 09:17:03;;;;;;;8.53;7.73;;;16.50;99.90;;;;;;5032616;28;20477;-59
2021/09/21 09:19:32;;;;;;;8.73;7.73;;;16.80;99.90;;;;;;5032755;28;20378;-60
2021/09/21 09:22:13;;;;;;;8.67;7.87;;;17.00;99.90;;;;;;5034228;28;20390;-59
2021/09/21 09:24:55;;;;;;;8.00;7.20;;;17.30;99.50;;;;;;5036565;28;20921;-59
2021/09/21 09:27:38;;;;;;;8.63;7.80;;;17.20;99.30;;;;;;5036148;28;20397;-59
2021/09/21 09:30:08;;;;;;;8.87;8.07;;;17.50;99.10;;;;;;5036132;28;20489;-59
2021/09/21 09:32:57;;;;;;;8.50;7.80;;;17.20;98.90;;;;;;5035752;28;20437;-59
2021/09/21 09:35:30;;;;;;;7.67;7.00;;;17.00;99.60;;;;;;5037128;28;20483;-59
2021/09/21 09:38:01;;;;;;;9.50;8.60;;;16.90;99.80;;;;;;5036532;28;20395;-59
2021/09/21 09:40:27;;;;;;;8.37;7.57;;;16.70;99.60;;;;;;5036214;28;20385;-59
2021/09/21 09:42:54;;;;;;;9.13;8.23;;;16.90;99.90;;;;;;5035136;28;20444;-59
2021/09/21 09:45:33;;;;;;;8.00;7.30;;;17.20;99.10;;;;;;5036139;28;20792;-59
2021/09/21 09:47:59;;;;;;;11.83;7.80;;;17.40;98.80;;;;;;5036163;28;20401;-58
2021/09/21 09:50:29;;;;;;;9.83;9.00;;;17.20;99.20;;;;;;5036104;28;20414;-59
2021/09/21 09:53:23;;;;;;;8.00;7.30;;;17.10;99.30;;;;;;5035856;28;20399;-59
2021/09/21 09:55:54;;;;;;;8.90;8.03;;;16.90;99.90;;;;;;5033612;28;20461;-59
2021/09/21 09:58:20;;;;;;;8.53;7.83;;;16.90;99.60;;;;;;5036095;28;20754;-59
2021/09/21 10:00:49;;;;;;;8.23;7.53;;;17.20;99.50;;;;;;5017921;28;20437;-59
2021/09/21 10:03:15;;;;;;;8.97;8.17;;;17.40;99.40;;;;;;5035904;28;20463;-59
2021/09/21 10:05:42;;;;;;;8.23;7.47;;;17.10;99.00;;;;;;5035536;28;20974;-60
2021/09/21 10:08:09;;;;;;;7.83;7.10;;;17.10;99.00;;;;;;5035561;28;20849;-59
2021/09/21 10:10:37;;;;;;;9.80;9.00;;;17.40;99.10;;;;;;5035959;28;20825;-58
2021/09/21 10:13:06;;;;;;;8.57;7.87;;;17.40;99.70;;;;;;5035601;28;20422;-59
2021/09/21 10:15:32;;;;;;;9.63;7.70;;;17.50;98.70;;;;;;5035405;28;20540;-58
2021/09/21 10:17:59;;;;;;;8.07;7.27;;;17.50;98.50;;;;;;5035519;28;20505;-57
2021/09/21 10:20:33;;;;;;;8.33;7.53;;;17.80;99.00;;;;;;5035090;28;20409;-59
2021/09/21 10:22:59;;;;;;;9.63;8.73;;;17.80;98.20;;;;;;5025471;28;20437;-60
2021/09/21 10:25:36;;;;;;;8.37;7.50;;;17.80;98.50;;;;;;5015287;28;20437;-59
2021/09/21 10:28:18;;;;;;;9.50;8.50;;;17.80;98.20;;;;;;5034613;28;20402;-59
2021/09/21 10:30:58;;;;;;;9.73;8.83;;;17.90;98.40;;;;;;5034105;28;20429;-60
2021/09/21 10:33:27;;;;;;;8.87;7.97;;;17.80;98.10;;;;;;5033566;28;20414;-58
2021/09/21 10:35:55;;;;;;;8.43;7.73;;;17.90;98.50;;;;;;5034476;28;20462;-59
2021/09/21 10:38:21;;;;;;;8.80;8.00;;;18.30;98.30;;;;;;5034434;28;20883;-60
2021/09/21 10:40:52;;;;;;;9.70;8.70;;;19.00;97.10;;;;;;5034523;28;20768;-59
2021/09/21 10:43:28;;;;;;;8.63;7.93;;;19.10;96.30;;;;;;5021319;28;20922;-59
2021/09/21 10:46:09;;;;;;;7.80;7.20;;;20.60;95.50;;;;;;5034822;28;20437;-59
2021/09/21 10:48:37;;;;;;;6.80;6.20;;;21.80;94.10;;;;;;5034792;28;20449;-59
2021/09/21 10:51:05;;;;;;;7.40;6.73;;;22.90;91.90;;;;;;5034763;28;21032;-59
2021/09/21 10:53:31;;;;;;;8.03;7.43;;;22.50;91.60;;;;;;5034593;28;20899;-60
2021/09/21 10:56:03;;;;;;;8.40;7.60;;;21.60;91.10;;;;;;5034495;28;20448;-60
2021/09/21 10:58:29;;;;;;;7.77;7.07;;;21.00;91.90;;;;;;5034426;28;20401;-60
2021/09/21 11:00:56;;;;;;;8.57;7.40;;;21.00;92.70;;;;;;5031525;28;20468;-60
2021/09/21 11:03:29;;;;;;;7.83;7.07;;;20.00;92.60;;;;;;5033302;28;20413;-60
2021/09/21 11:05:56;;;;;;;7.00;6.40;;;19.70;93.50;;;;;;5013365;28;20931;-60
2021/09/21 11:08:30;;;;;;;7.73;7.03;;;19.60;93.40;;;;;;5014154;28;20431;-60
2021/09/21 11:10:59;;;;;;;7.27;6.70;;;19.60;93.20;;;;;;5016924;28;20410;-60
2021/09/21 11:13:33;;;;;;;8.30;7.50;;;20.00;93.50;;;;;;5034383;28;20398;-60
2021/09/21 11:16:02;;;;;;;8.70;7.30;;;20.60;92.30;;;;;;5033785;28;20822;-59
2021/09/21 11:18:28;;;;;;;6.43;5.93;;;21.30;91.40;;;;;;5034211;28;20417;-60
2021/09/21 11:20:58;;;;;;;7.20;6.60;;;22.20;90.60;;;;;;5034376;28;20434;-60
2021/09/21 11:23:29;;;;;;;7.40;6.80;;;21.90;89.80;;;;;;5033557;28;20405;-59
2021/09/21 11:25:58;;;;;;;7.20;6.50;;;21.90;89.40;;;;;;5033934;28;20422;-60
2021/09/21 11:28:25;;;;;;;7.37;6.77;;;20.90;91.10;;;;;;5033850;28;20915;-59
2021/09/21 11:30:51;;;;;;;8.07;7.00;;;21.00;91.30;;;;;;5034230;28;20463;-59
2021/09/21 11:33:20;;;;;;;7.83;7.13;;;21.20;90.90;;;;;;5033939;28;20911;-58
2021/09/21 11:35:48;;;;;;;7.47;6.87;;;21.00;91.20;;;;;;5033217;28;20247;-58
2021/09/21 11:38:14;;;;;;;7.83;6.80;;;20.80;90.90;;;;;;5031878;28;20440;-60
2021/09/21 11:40:42;;;;;;;8.77;7.97;;;21.00;91.20;;;;;;5031960;28;20885;-58
2021/09/21 11:43:09;;;;;;;8.00;7.30;;;20.90;90.50;;;;;;5019891;28;20733;-59
2021/09/21 11:45:35;;;;;;;10.23;7.57;;;21.80;90.60;;;;;;5013805;28;20467;-58
2021/09/21 11:48:01;;;;;;;9.20;8.30;;;22.70;88.80;;;;;;5026714;28;20445;-60
2021/09/21 11:50:29;;;;;;;7.07;6.43;;;22.70;87.60;;;;;;5033811;28;20406;-60
2021/09/21 11:52:58;;;;;;;8.43;7.63;;;24.00;86.00;;;;;;5033080;28;20272;-60
2021/09/21 11:55:26;;;;;;;6.70;6.20;;;24.30;82.90;;;;;;5033434;28;20450;-59
2021/09/21 11:57:53;;;;;;;7.77;6.97;;;23.10;84.30;;;;;;5033673;28;20402;-60
2021/09/21 12:00:24;;;;;;;9.73;7.73;;;22.00;87.20;;;;;;5019590;28;20422;-60
2021/09/21 12:02:59;;;;;;;8.00;7.30;;;21.70;88.90;;;;;;5011563;28;20407;-60
2021/09/21 12:05:25;;;;;;;8.80;8.00;;;21.30;89.40;;;;;;5013864;28;20426;-60
2021/09/21 12:07:51;;;;;;;9.17;8.37;;;21.00;90.50;;;;;;5013307;28;20775;-60
2021/09/21 12:10:18;;;;;;;7.37;6.77;;;21.00;90.80;;;;;;5014021;28;20399;-58
2021/09/21 12:12:44;;;;;;;7.97;7.00;;;21.60;90.00;;;;;;5013542;28;20421;-60
2021/09/21 12:15:12;;;;;;;8.23;7.20;;;21.90;90.10;;;;;;5013625;28;20541;-60
2021/09/21 12:17:45;;;;;;;8.17;7.57;;;22.50;88.00;;;;;;5013756;28;20251;-60
2021/09/21 12:20:12;;;;;;;7.57;6.97;;;23.10;86.90;;;;;;5013442;28;20449;-59
2021/09/21 12:22:39;;;;;;;7.70;7.10;;;23.40;84.80;;;;;;5013104;28;20774;-60
2021/09/21 12:25:09;;;;;;;9.67;7.50;;;24.00;83.50;;;;;;5013275;28;20429;-60
2021/09/21 12:27:36;;;;;;;8.43;7.60;;;23.70;83.90;;;;;;5018132;28;20405;-60
2021/09/21 12:30:05;;;;;;;9.03;8.10;;;23.40;83.20;;;;;;5033067;28;20406;-60
2021/09/21 12:32:30;;;;;;;9.20;8.47;;;23.20;84.90;;;;;;5032965;28;20778;-60
2021/09/21 12:35:08;;;;;;;7.90;7.20;;;24.30;82.30;;;;;;5032755;28;20473;-60
2021/09/21 12:37:43;;;;;;;7.73;7.13;;;25.00;79.60;;;;;;5013337;28;20546;-60
2021/09/21 12:40:14;;;;;;;9.07;8.37;;;24.80;80.00;;;;;;5013429;28;20383;-59
2021/09/21 12:42:43;;;;;;;9.50;8.53;;;25.40;78.30;;;;;;5012788;28;20407;-58
2021/09/21 12:45:11;;;;;;;9.60;8.90;;;24.70;78.70;;;;;;5013108;28;20502;-59
2021/09/21 12:47:40;;;;;;;8.33;7.63;;;25.30;77.60;;;;;;5012939;28;20502;-61
2021/09/21 12:50:18;;;;;;;9.20;8.40;;;24.90;77.70;;;;;;5013089;28;20458;-60